sensor_id;sensor_type;location;lat;lon;timestamp;temperature;humidity
20231;DHT22;10274;49.022;9.338;2023-08-21T00:01:24;21.40;99.90
20231;DHT22;10274;49.022;9.338;2023-08-21T00:03:51;21.30;99.90
20231;DHT22;10274;49.022;9.338;2023-08-21T00:06:17;21.10;99.90
20231;DHT22;10274;49.022;9.338;2023-08-21T00:08:44;21.10;99.90
20231;DHT22;10274;49.022;9.338;2023-08-21T00:11:11;21.30;99.90
20231;DHT22;10274;49.022;9.338;2023-08-21T00:13:38;21.30;99.90
20231;DHT22;10274;49.022;9.338;2023-08-21T00:16:06;21.10;99.90
20231;DHT22;10274;49.022;9.338;2023-08-21T00:18:33;21.00;99.90
20231;DHT22;10274;49.022;9.338;2023-08-21T00:21:00;21.00;99.90
20231;DHT22;10274;49.022;9.338;2023-08-21T00:23:26;21.10;99.90
20231;DHT22;10274;49.022;9.338;2023-08-21T00:25:53;21.30;99.90
20231;DHT22;10274;49.022;9.338;2023-08-21T00:28:20;21.40;99.90
20231;DHT22;10274;49.022;9.338;2023-08-21T00:30:46;21.40;99.90
20231;DHT22;10274;49.022;9.338;2023-08-21T00:33:14;21.40;99.90
20231;DHT22;10274;49.022;9.338;2023-08-21T00:35:42;21.30;99.90
20231;DHT22;10274;49.022;9.338;2023-08-21T00:38:08;21.10;99.90
20231;DHT22;10274;49.022;9.338;2023-08-21T00:40:35;20.90;99.90
20231;DHT22;10274;49.022;9.338;2023-08-21T00:43:02;20.90;99.90
20231;DHT22;10274;49.022;9.338;2023-08-21T00:45:30;21.10;99.90
20231;DHT22;10274;49.022;9.338;2023-08-21T00:47:57;21.10;99.90
20231;DHT22;10274;49.022;9.338;2023-08-21T00:50:25;21.20;99.90
20231;DHT22;10274;49.022;9.338;2023-08-21T00:52:52;21.20;99.90
20231;DHT22;10274;49.022;9.338;2023-08-21T00:55:18;21.30;99.90
20231;DHT22;10274;49.022;9.338;2023-08-21T00:57:45;21.20;99.90
20231;DHT22;10274;49.022;9.338;2023-08-21T01:00:13;20.70;99.90
20231;DHT22;10274;49.022;9.338;2023-08-21T01:02:40;20.50;99.90
20231;DHT22;10274;49.022;9.338;2023-08-21T01:05:08;20.50;99.90
20231;DHT22;10274;49.022;9.338;2023-08-21T01:07:40;20.50;99.90
20231;DHT22;10274;49.022;9.338;2023-08-21T01:10:15;20.60;99.90
20231;DHT22;10274;49.022;9.338;2023-08-21T01:12:50;20.70;99.90
20231;DHT22;10274;49.022;9.338;2023-08-21T01:15:17;20.80;99.90
20231;DHT22;10274;49.022;9.338;2023-08-21T01:17:46;20.80;99.90
20231;DHT22;10274;49.022;9.338;2023-08-21T01:20:14;20.60;99.90
20231;DHT22;10274;49.022;9.338;2023-08-21T01:22:43;20.60;99.90
20231;DHT22;10274;49.022;9.338;2023-08-21T01:25:13;20.70;99.90
20231;DHT22;10274;49.022;9.338;2023-08-21T01:27:50;20.80;99.90
20231;DHT22;10274;49.022;9.338;2023-08-21T01:30:17;20.80;99.90
20231;DHT22;10274;49.022;9.338;2023-08-21T01:32:50;20.80;99.90
20231;DHT22;10274;49.022;9.338;2023-08-21T01:35:20;20.60;99.90
20231;DHT22;10274;49.022;9.338;2023-08-21T01:37:47;20.50;99.90
20231;DHT22;10274;49.022;9.338;2023-08-21T01:40:21;20.50;99.90
20231;DHT22;10274;49.022;9.338;2023-08-21T01:42:48;20.50;99.90
20231;DHT22;10274;49.022;9.338;2023-08-21T01:45:15;20.50;99.90
20231;DHT22;10274;49.022;9.338;2023-08-21T01:47:41;20.30;99.90
20231;DHT22;10274;49.022;9.338;2023-08-21T01:50:09;20.10;99.90
20231;DHT22;10274;49.022;9.338;2023-08-21T01:52:35;20.10;99.90
20231;DHT22;10274;49.022;9.338;2023-08-21T01:55:03;20.30;99.90
20231;DHT22;10274;49.022;9.338;2023-08-21T01:57:31;20.40;99.90
20231;DHT22;10274;49.022;9.338;2023-08-21T01:59:58;20.40;99.90
20231;DHT22;10274;49.022;9.338;2023-08-21T02:02:24;20.30;99.90
20231;DHT22;10274;49.022;9.338;2023-08-21T02:04:51;20.30;99.90
20231;DHT22;10274;49.022;9.338;2023-08-21T02:07:18;20.40;99.90
20231;DHT22;10274;49.022;9.338;2023-08-21T02:09:45;20.40;99.90
20231;DHT22;10274;49.022;9.338;2023-08-21T02:12:11;20.30;99.90
20231;DHT22;10274;49.022;9.338;2023-08-21T02:14:39;20.00;99.90
20231;DHT22;10274;49.022;9.338;2023-08-21T02:17:06;19.90;99.90
20231;DHT22;10274;49.022;9.338;2023-08-21T02:19:33;20.00;99.90
20231;DHT22;10274;49.022;9.338;2023-08-21T02:21:59;20.20;99.90
20231;DHT22;10274;49.022;9.338;2023-08-21T02:24:26;20.10;99.90
20231;DHT22;10274;49.022;9.338;2023-08-21T02:26:53;20.10;99.90
20231;DHT22;10274;49.022;9.338;2023-08-21T02:29:20;20.10;99.90
20231;DHT22;10274;49.022;9.338;2023-08-21T02:31:48;19.90;99.90
20231;DHT22;10274;49.022;9.338;2023-08-21T02:34:15;19.90;99.90
20231;DHT22;10274;49.022;9.338;2023-08-21T02:36:41;19.90;99.90
20231;DHT22;10274;49.022;9.338;2023-08-21T02:39:08;20.00;99.90
20231;DHT22;10274;49.022;9.338;2023-08-21T02:41:35;20.00;99.90
20231;DHT22;10274;49.022;9.338;2023-08-21T02:44:02;19.90;99.90
20231;DHT22;10274;49.022;9.338;2023-08-21T02:46:28;19.70;99.90
20231;DHT22;10274;49.022;9.338;2023-08-21T02:48:56;19.70;99.90
20231;DHT22;10274;49.022;9.338;2023-08-21T02:51:23;19.90;99.90
20231;DHT22;10274;49.022;9.338;2023-08-21T02:53:50;19.90;99.90
20231;DHT22;10274;49.022;9.338;2023-08-21T02:56:17;20.00;99.90
20231;DHT22;10274;49.022;9.338;2023-08-21T02:58:43;19.80;99.90
20231;DHT22;10274;49.022;9.338;2023-08-21T03:01:10;19.60;99.90
20231;DHT22;10274;49.022;9.338;2023-08-21T03:03:37;19.80;99.90
20231;DHT22;10274;49.022;9.338;2023-08-21T03:06:05;19.90;99.90
20231;DHT22;10274;49.022;9.338;2023-08-21T03:08:32;20.00;99.90
20231;DHT22;10274;49.022;9.338;2023-08-21T03:10:59;20.00;99.90
20231;DHT22;10274;49.022;9.338;2023-08-21T03:13:25;19.90;99.90
20231;DHT22;10274;49.022;9.338;2023-08-21T03:15:52;20.00;99.90
20231;DHT22;10274;49.022;9.338;2023-08-21T03:18:19;20.00;99.90
20231;DHT22;10274;49.022;9.338;2023-08-21T03:20:46;20.00;99.90
20231;DHT22;10274;49.022;9.338;2023-08-21T03:23:14;20.00;99.90
20231;DHT22;10274;49.022;9.338;2023-08-21T03:25:40;20.00;99.90
20231;DHT22;10274;49.022;9.338;2023-08-21T03:28:07;20.10;99.90
20231;DHT22;10274;49.022;9.338;2023-08-21T03:30:34;20.00;99.90
20231;DHT22;10274;49.022;9.338;2023-08-21T03:33:01;19.70;99.90
20231;DHT22;10274;49.022;9.338;2023-08-21T03:35:27;19.50;99.90
20231;DHT22;10274;49.022;9.338;2023-08-21T03:37:54;19.40;99.90
20231;DHT22;10274;49.022;9.338;2023-08-21T03:40:22;19.40;99.90
20231;DHT22;10274;49.022;9.338;2023-08-21T03:42:49;19.40;99.90
20231;DHT22;10274;49.022;9.338;2023-08-21T03:45:15;19.50;99.90
20231;DHT22;10274;49.022;9.338;2023-08-21T03:47:42;19.50;99.90
20231;DHT22;10274;49.022;9.338;2023-08-21T03:50:09;19.60;99.90
20231;DHT22;10274;49.022;9.338;2023-08-21T03:52:36;19.70;99.90
20231;DHT22;10274;49.022;9.338;2023-08-21T03:55:03;19.80;99.90
20231;DHT22;10274;49.022;9.338;2023-08-21T03:57:31;19.80;99.90
20231;DHT22;10274;49.022;9.338;2023-08-21T03:59:58;19.80;99.90
20231;DHT22;10274;49.022;9.338;2023-08-21T04:02:25;19.80;99.90
20231;DHT22;10274;49.022;9.338;2023-08-21T04:04:51;19.80;99.90
20231;DHT22;10274;49.022;9.338;2023-08-21T04:07:18;19.80;99.90
20231;DHT22;10274;49.022;9.338;2023-08-21T04:09:45;19.90;99.90
20231;DHT22;10274;49.022;9.338;2023-08-21T04:12:12;19.70;99.90
20231;DHT22;10274;49.022;9.338;2023-08-21T04:14:40;19.50;99.90
20231;DHT22;10274;49.022;9.338;2023-08-21T04:17:06;19.30;99.90
20231;DHT22;10274;49.022;9.338;2023-08-21T04:19:33;19.20;99.90
20231;DHT22;10274;49.022;9.338;2023-08-21T04:22:00;19.10;99.90
20231;DHT22;10274;49.022;9.338;2023-08-21T04:24:26;19.10;99.90
20231;DHT22;10274;49.022;9.338;2023-08-21T04:26:53;19.20;99.90
20231;DHT22;10274;49.022;9.338;2023-08-21T04:29:20;19.30;99.90
20231;DHT22;10274;49.022;9.338;2023-08-21T04:31:48;19.40;99.90
20231;DHT22;10274;49.022;9.338;2023-08-21T04:34:15;19.40;99.90
20231;DHT22;10274;49.022;9.338;2023-08-21T04:36:43;19.50;99.90
20231;DHT22;10274;49.022;9.338;2023-08-21T04:39:10;19.50;99.90
20231;DHT22;10274;49.022;9.338;2023-08-21T04:41:36;19.60;99.90
20231;DHT22;10274;49.022;9.338;2023-08-21T04:44:03;19.60;99.90
20231;DHT22;10274;49.022;9.338;2023-08-21T04:46:30;19.50;99.90
20231;DHT22;10274;49.022;9.338;2023-08-21T04:48:58;19.40;99.90
20231;DHT22;10274;49.022;9.338;2023-08-21T04:51:25;19.40;99.90
20231;DHT22;10274;49.022;9.338;2023-08-21T04:53:52;19.50;99.90
20231;DHT22;10274;49.022;9.338;2023-08-21T04:56:18;19.50;99.90
20231;DHT22;10274;49.022;9.338;2023-08-21T04:58:45;19.60;99.90
20231;DHT22;10274;49.022;9.338;2023-08-21T05:01:12;19.70;99.90
20231;DHT22;10274;49.022;9.338;2023-08-21T05:03:38;19.80;99.90
20231;DHT22;10274;49.022;9.338;2023-08-21T05:06:06;19.40;99.90
20231;DHT22;10274;49.022;9.338;2023-08-21T05:08:34;19.20;99.90
20231;DHT22;10274;49.022;9.338;2023-08-21T05:11:01;19.30;99.90
20231;DHT22;10274;49.022;9.338;2023-08-21T05:13:28;19.30;99.90
20231;DHT22;10274;49.022;9.338;2023-08-21T05:15:55;19.40;99.90
20231;DHT22;10274;49.022;9.338;2023-08-21T05:18:24;19.50;99.90
20231;DHT22;10274;49.022;9.338;2023-08-21T05:20:53;19.50;99.90
20231;DHT22;10274;49.022;9.338;2023-08-21T05:23:21;19.70;99.90
20231;DHT22;10274;49.022;9.338;2023-08-21T05:25:49;19.70;99.90
20231;DHT22;10274;49.022;9.338;2023-08-21T05:28:16;19.50;99.90
20231;DHT22;10274;49.022;9.338;2023-08-21T05:30:42;19.40;99.90
20231;DHT22;10274;49.022;9.338;2023-08-21T05:33:09;19.40;99.90
20231;DHT22;10274;49.022;9.338;2023-08-21T05:35:36;19.40;99.90
20231;DHT22;10274;49.022;9.338;2023-08-21T05:38:03;19.50;99.90
20231;DHT22;10274;49.022;9.338;2023-08-21T05:40:31;19.70;99.90
20231;DHT22;10274;49.022;9.338;2023-08-21T05:42:58;19.80;99.90
20231;DHT22;10274;49.022;9.338;2023-08-21T05:45:25;19.90;99.90
20231;DHT22;10274;49.022;9.338;2023-08-21T05:47:52;20.10;99.90
20231;DHT22;10274;49.022;9.338;2023-08-21T05:50:18;20.10;99.90
20231;DHT22;10274;49.022;9.338;2023-08-21T05:52:45;20.30;99.90
20231;DHT22;10274;49.022;9.338;2023-08-21T05:55:12;20.40;99.90
20231;DHT22;10274;49.022;9.338;2023-08-21T05:57:40;20.50;99.90
20231;DHT22;10274;49.022;9.338;2023-08-21T06:00:07;20.50;99.90
20231;DHT22;10274;49.022;9.338;2023-08-21T06:02:34;20.60;99.90
20231;DHT22;10274;49.022;9.338;2023-08-21T06:05:01;20.70;99.90
20231;DHT22;10274;49.022;9.338;2023-08-21T06:07:28;20.80;99.90
20231;DHT22;10274;49.022;9.338;2023-08-21T06:09:55;21.00;99.90
20231;DHT22;10274;49.022;9.338;2023-08-21T06:12:22;21.20;99.90
20231;DHT22;10274;49.022;9.338;2023-08-21T06:14:50;21.40;99.90
20231;DHT22;10274;49.022;9.338;2023-08-21T06:17:17;21.40;99.90
20231;DHT22;10274;49.022;9.338;2023-08-21T06:19:44;21.50;99.90
20231;DHT22;10274;49.022;9.338;2023-08-21T06:22:10;21.60;99.90
20231;DHT22;10274;49.022;9.338;2023-08-21T06:24:37;21.80;99.90
20231;DHT22;10274;49.022;9.338;2023-08-21T06:27:04;22.00;99.90
20231;DHT22;10274;49.022;9.338;2023-08-21T06:29:31;22.10;99.90
20231;DHT22;10274;49.022;9.338;2023-08-21T06:31:59;22.20;99.90
20231;DHT22;10274;49.022;9.338;2023-08-21T06:34:26;22.30;99.90
20231;DHT22;10274;49.022;9.338;2023-08-21T06:36:52;22.40;99.90
20231;DHT22;10274;49.022;9.338;2023-08-21T06:39:19;22.50;99.90
20231;DHT22;10274;49.022;9.338;2023-08-21T06:41:46;22.60;79.00
20231;DHT22;10274;49.022;9.338;2023-08-21T06:44:12;22.70;76.70
20231;DHT22;10274;49.022;9.338;2023-08-21T06:46:39;22.90;45.20
20231;DHT22;10274;49.022;9.338;2023-08-21T06:49:07;23.10;22.30
20231;DHT22;10274;49.022;9.338;2023-08-21T06:51:34;23.40;1.90
20231;DHT22;10274;49.022;9.338;2023-08-21T06:54:01;23.50;1.00
20231;DHT22;10274;49.022;9.338;2023-08-21T06:56:28;23.50;1.00
20231;DHT22;10274;49.022;9.338;2023-08-21T06:58:54;23.60;1.00
20231;DHT22;10274;49.022;9.338;2023-08-21T07:01:21;23.80;1.00
20231;DHT22;10274;49.022;9.338;2023-08-21T07:03:48;23.80;1.00
20231;DHT22;10274;49.022;9.338;2023-08-21T07:06:16;23.90;1.00
20231;DHT22;10274;49.022;9.338;2023-08-21T07:08:43;24.00;1.00
20231;DHT22;10274;49.022;9.338;2023-08-21T07:11:10;24.20;1.00
20231;DHT22;10274;49.022;9.338;2023-08-21T07:13:37;24.30;1.00
20231;DHT22;10274;49.022;9.338;2023-08-21T07:16:04;24.30;1.00
20231;DHT22;10274;49.022;9.338;2023-08-21T07:18:32;24.40;1.00
20231;DHT22;10274;49.022;9.338;2023-08-21T07:20:59;24.60;1.00
20231;DHT22;10274;49.022;9.338;2023-08-21T07:23:28;24.80;1.00
20231;DHT22;10274;49.022;9.338;2023-08-21T07:25:54;24.90;1.00
20231;DHT22;10274;49.022;9.338;2023-08-21T07:28:21;25.00;1.00
20231;DHT22;10274;49.022;9.338;2023-08-21T07:30:48;24.90;99.90
20231;DHT22;10274;49.022;9.338;2023-08-21T07:33:20;25.10;99.90
20231;DHT22;10274;49.022;9.338;2023-08-21T07:35:47;25.30;1.00
20231;DHT22;10274;49.022;9.338;2023-08-21T07:38:13;25.30;1.00
20231;DHT22;10274;49.022;9.338;2023-08-21T07:40:42;25.70;1.00
20231;DHT22;10274;49.022;9.338;2023-08-21T07:43:08;25.70;1.00
20231;DHT22;10274;49.022;9.338;2023-08-21T07:45:37;25.90;1.00
20231;DHT22;10274;49.022;9.338;2023-08-21T07:48:04;26.00;99.90
20231;DHT22;10274;49.022;9.338;2023-08-21T07:50:31;25.90;99.90
20231;DHT22;10274;49.022;9.338;2023-08-21T07:52:58;25.90;1.00
20231;DHT22;10274;49.022;9.338;2023-08-21T07:55:25;26.30;1.00
20231;DHT22;10274;49.022;9.338;2023-08-21T07:57:53;26.80;1.00
20231;DHT22;10274;49.022;9.338;2023-08-21T08:00:19;26.70;99.90
20231;DHT22;10274;49.022;9.338;2023-08-21T08:02:46;27.10;1.00
20231;DHT22;10274;49.022;9.338;2023-08-21T08:05:13;27.20;25.50
20231;DHT22;10274;49.022;9.338;2023-08-21T08:07:40;27.10;1.00
20231;DHT22;10274;49.022;9.338;2023-08-21T08:10:07;27.10;1.00
20231;DHT22;10274;49.022;9.338;2023-08-21T08:12:33;27.30;99.90
20231;DHT22;10274;49.022;9.338;2023-08-21T08:15:02;27.40;99.90
20231;DHT22;10274;49.022;9.338;2023-08-21T08:17:28;27.90;50.00
20231;DHT22;10274;49.022;9.338;2023-08-21T08:19:55;28.30;1.00
20231;DHT22;10274;49.022;9.338;2023-08-21T08:22:22;28.30;1.00
20231;DHT22;10274;49.022;9.338;2023-08-21T08:24:48;27.90;1.00
20231;DHT22;10274;49.022;9.338;2023-08-21T08:27:15;28.00;1.00
20231;DHT22;10274;49.022;9.338;2023-08-21T08:29:42;28.30;1.00
20231;DHT22;10274;49.022;9.338;2023-08-21T08:32:10;28.10;1.00
20231;DHT22;10274;49.022;9.338;2023-08-21T08:34:36;28.40;99.90
20231;DHT22;10274;49.022;9.338;2023-08-21T08:37:03;30.10;99.90
20231;DHT22;10274;49.022;9.338;2023-08-21T08:39:30;30.70;1.00
20231;DHT22;10274;49.022;9.338;2023-08-21T08:42:01;30.40;1.00
20231;DHT22;10274;49.022;9.338;2023-08-21T08:44:30;31.20;1.00
20231;DHT22;10274;49.022;9.338;2023-08-21T08:46:57;31.00;99.90
20231;DHT22;10274;49.022;9.338;2023-08-21T08:49:25;31.90;99.90
20231;DHT22;10274;49.022;9.338;2023-08-21T08:51:53;32.20;58.00
20231;DHT22;10274;49.022;9.338;2023-08-21T08:54:21;33.00;1.00
20231;DHT22;10274;49.022;9.338;2023-08-21T08:56:48;33.40;1.00
20231;DHT22;10274;49.022;9.338;2023-08-21T08:59:15;33.20;1.00
20231;DHT22;10274;49.022;9.338;2023-08-21T09:01:42;34.30;1.00
20231;DHT22;10274;49.022;9.338;2023-08-21T09:04:09;35.00;1.00
20231;DHT22;10274;49.022;9.338;2023-08-21T09:06:38;34.10;1.00
20231;DHT22;10274;49.022;9.338;2023-08-21T09:09:05;33.70;1.00
20231;DHT22;10274;49.022;9.338;2023-08-21T09:11:33;33.90;1.00
20231;DHT22;10274;49.022;9.338;2023-08-21T09:14:00;33.70;1.00
20231;DHT22;10274;49.022;9.338;2023-08-21T09:16:27;33.60;1.00
20231;DHT22;10274;49.022;9.338;2023-08-21T09:18:55;33.00;1.00
20231;DHT22;10274;49.022;9.338;2023-08-21T09:21:24;33.40;1.00
20231;DHT22;10274;49.022;9.338;2023-08-21T09:23:57;33.70;1.00
20231;DHT22;10274;49.022;9.338;2023-08-21T09:26:25;34.50;1.00
20231;DHT22;10274;49.022;9.338;2023-08-21T09:28:53;34.80;1.00
20231;DHT22;10274;49.022;9.338;2023-08-21T09:31:22;33.80;1.00
20231;DHT22;10274;49.022;9.338;2023-08-21T09:33:55;34.60;1.00
20231;DHT22;10274;49.022;9.338;2023-08-21T09:36:23;35.20;1.00
20231;DHT22;10274;49.022;9.338;2023-08-21T09:38:51;34.20;1.00
20231;DHT22;10274;49.022;9.338;2023-08-21T09:41:20;34.30;1.00
20231;DHT22;10274;49.022;9.338;2023-08-21T09:43:47;35.10;1.00
20231;DHT22;10274;49.022;9.338;2023-08-21T09:46:14;34.10;1.00
20231;DHT22;10274;49.022;9.338;2023-08-21T09:48:44;34.60;1.00
20231;DHT22;10274;49.022;9.338;2023-08-21T09:51:11;34.20;1.00
20231;DHT22;10274;49.022;9.338;2023-08-21T09:53:37;34.60;1.00
20231;DHT22;10274;49.022;9.338;2023-08-21T09:56:06;34.40;1.00
20231;DHT22;10274;49.022;9.338;2023-08-21T09:58:35;35.30;1.00
20231;DHT22;10274;49.022;9.338;2023-08-21T10:03:37;35.70;1.00
20231;DHT22;10274;49.022;9.338;2023-08-21T10:06:05;35.50;1.00
20231;DHT22;10274;49.022;9.338;2023-08-21T10:08:36;35.80;1.00
20231;DHT22;10274;49.022;9.338;2023-08-21T10:11:05;36.00;1.00
20231;DHT22;10274;49.022;9.338;2023-08-21T10:13:32;36.00;1.00
20231;DHT22;10274;49.022;9.338;2023-08-21T10:16:01;36.30;1.00
20231;DHT22;10274;49.022;9.338;2023-08-21T10:18:31;36.50;1.00
20231;DHT22;10274;49.022;9.338;2023-08-21T10:21:10;36.50;99.90
20231;DHT22;10274;49.022;9.338;2023-08-21T10:23:38;36.70;99.90
20231;DHT22;10274;49.022;9.338;2023-08-21T10:26:06;35.90;99.90
20231;DHT22;10274;49.022;9.338;2023-08-21T10:28:49;35.60;99.90
20231;DHT22;10274;49.022;9.338;2023-08-21T10:31:26;36.10;99.90
20231;DHT22;10274;49.022;9.338;2023-08-21T10:33:53;36.20;99.90
20231;DHT22;10274;49.022;9.338;2023-08-21T10:39:01;36.70;99.90
20231;DHT22;10274;49.022;9.338;2023-08-21T10:41:29;36.70;99.90
20231;DHT22;10274;49.022;9.338;2023-08-21T10:43:56;37.10;99.90
20231;DHT22;10274;49.022;9.338;2023-08-21T10:46:22;37.10;99.90
20231;DHT22;10274;49.022;9.338;2023-08-21T10:48:50;36.40;99.90
20231;DHT22;10274;49.022;9.338;2023-08-21T10:51:17;35.20;99.90
20231;DHT22;10274;49.022;9.338;2023-08-21T10:53:44;35.70;99.90
20231;DHT22;10274;49.022;9.338;2023-08-21T10:56:10;35.70;99.90
20231;DHT22;10274;49.022;9.338;2023-08-21T10:58:37;35.90;99.90
20231;DHT22;10274;49.022;9.338;2023-08-21T11:01:05;36.50;99.90
20231;DHT22;10274;49.022;9.338;2023-08-21T11:03:31;36.60;99.90
20231;DHT22;10274;49.022;9.338;2023-08-21T11:06:03;36.60;99.90
20231;DHT22;10274;49.022;9.338;2023-08-21T11:08:31;36.80;99.90
20231;DHT22;10274;49.022;9.338;2023-08-21T11:10:57;35.90;99.90
20231;DHT22;10274;49.022;9.338;2023-08-21T11:13:24;35.70;99.90
20231;DHT22;10274;49.022;9.338;2023-08-21T11:15:57;35.80;99.90
20231;DHT22;10274;49.022;9.338;2023-08-21T11:18:29;36.10;99.90
20231;DHT22;10274;49.022;9.338;2023-08-21T11:21:04;36.40;99.90
20231;DHT22;10274;49.022;9.338;2023-08-21T11:23:32;36.40;99.90
20231;DHT22;10274;49.022;9.338;2023-08-21T11:25:58;35.80;99.90
20231;DHT22;10274;49.022;9.338;2023-08-21T11:28:25;35.60;99.90
20231;DHT22;10274;49.022;9.338;2023-08-21T11:30:52;35.50;99.90
20231;DHT22;10274;49.022;9.338;2023-08-21T11:33:18;35.30;99.90
20231;DHT22;10274;49.022;9.338;2023-08-21T11:35:45;35.20;99.90
20231;DHT22;10274;49.022;9.338;2023-08-21T11:38:16;35.00;99.90
20231;DHT22;10274;49.022;9.338;2023-08-21T11:40:50;35.10;99.90
20231;DHT22;10274;49.022;9.338;2023-08-21T11:43:17;35.10;99.90
20231;DHT22;10274;49.022;9.338;2023-08-21T11:45:45;35.00;99.90
20231;DHT22;10274;49.022;9.338;2023-08-21T11:48:11;34.60;99.90
20231;DHT22;10274;49.022;9.338;2023-08-21T11:50:38;34.30;99.90
20231;DHT22;10274;49.022;9.338;2023-08-21T11:53:05;34.70;99.90
20231;DHT22;10274;49.022;9.338;2023-08-21T11:55:33;35.20;99.90
20231;DHT22;10274;49.022;9.338;2023-08-21T11:58:01;35.20;99.90
20231;DHT22;10274;49.022;9.338;2023-08-21T12:00:30;35.20;99.90
20231;DHT22;10274;49.022;9.338;2023-08-21T12:02:57;34.90;99.90
20231;DHT22;10274;49.022;9.338;2023-08-21T12:05:23;34.70;99.90
20231;DHT22;10274;49.022;9.338;2023-08-21T12:07:50;34.70;99.90
20231;DHT22;10274;49.022;9.338;2023-08-21T12:10:21;34.60;99.90
20231;DHT22;10274;49.022;9.338;2023-08-21T12:12:49;35.10;99.90
20231;DHT22;10274;49.022;9.338;2023-08-21T12:15:16;35.10;99.90
20231;DHT22;10274;49.022;9.338;2023-08-21T12:17:43;34.40;99.90
20231;DHT22;10274;49.022;9.338;2023-08-21T12:20:09;34.60;99.90
20231;DHT22;10274;49.022;9.338;2023-08-21T12:22:37;34.60;99.90
20231;DHT22;10274;49.022;9.338;2023-08-21T12:25:03;34.50;99.90
20231;DHT22;10274;49.022;9.338;2023-08-21T12:27:30;34.60;99.90
20231;DHT22;10274;49.022;9.338;2023-08-21T12:29:58;34.20;99.90
20231;DHT22;10274;49.022;9.338;2023-08-21T12:32:25;34.60;99.90
20231;DHT22;10274;49.022;9.338;2023-08-21T12:34:51;34.60;99.90
20231;DHT22;10274;49.022;9.338;2023-08-21T12:37:18;34.60;99.90
20231;DHT22;10274;49.022;9.338;2023-08-21T12:39:45;34.50;99.90
20231;DHT22;10274;49.022;9.338;2023-08-21T12:42:11;33.70;99.90
20231;DHT22;10274;49.022;9.338;2023-08-21T12:44:38;33.70;99.90
20231;DHT22;10274;49.022;9.338;2023-08-21T12:47:06;33.90;99.90
20231;DHT22;10274;49.022;9.338;2023-08-21T12:49:32;34.00;99.90
20231;DHT22;10274;49.022;9.338;2023-08-21T12:52:00;34.40;99.90
20231;DHT22;10274;49.022;9.338;2023-08-21T12:54:27;34.70;99.90
20231;DHT22;10274;49.022;9.338;2023-08-21T12:56:53;34.00;99.90
20231;DHT22;10274;49.022;9.338;2023-08-21T12:59:21;33.50;99.90
20231;DHT22;10274;49.022;9.338;2023-08-21T13:01:48;33.30;99.90
20231;DHT22;10274;49.022;9.338;2023-08-21T13:04:16;32.90;99.90
20231;DHT22;10274;49.022;9.338;2023-08-21T13:06:43;32.60;99.90
20231;DHT22;10274;49.022;9.338;2023-08-21T13:09:09;32.60;99.90
20231;DHT22;10274;49.022;9.338;2023-08-21T13:11:36;32.40;99.90
20231;DHT22;10274;49.022;9.338;2023-08-21T13:14:02;33.20;99.90
20231;DHT22;10274;49.022;9.338;2023-08-21T13:16:29;33.80;99.90
20231;DHT22;10274;49.022;9.338;2023-08-21T13:18:56;33.60;99.90
20231;DHT22;10274;49.022;9.338;2023-08-21T13:21:24;33.40;99.90
20231;DHT22;10274;49.022;9.338;2023-08-21T13:23:50;33.50;99.90
20231;DHT22;10274;49.022;9.338;2023-08-21T13:26:17;33.90;99.90
20231;DHT22;10274;49.022;9.338;2023-08-21T13:28:44;33.70;99.90
20231;DHT22;10274;49.022;9.338;2023-08-21T13:31:10;34.00;99.90
20231;DHT22;10274;49.022;9.338;2023-08-21T13:33:44;34.40;99.90
20231;DHT22;10274;49.022;9.338;2023-08-21T13:36:10;34.50;99.90
20231;DHT22;10274;49.022;9.338;2023-08-21T13:38:38;34.50;99.90
20231;DHT22;10274;49.022;9.338;2023-08-21T13:41:05;34.60;99.90
20231;DHT22;10274;49.022;9.338;2023-08-21T13:43:31;34.70;99.90
20231;DHT22;10274;49.022;9.338;2023-08-21T13:45:59;34.70;99.90
20231;DHT22;10274;49.022;9.338;2023-08-21T13:48:26;34.40;99.90
20231;DHT22;10274;49.022;9.338;2023-08-21T13:50:52;34.20;99.90
20231;DHT22;10274;49.022;9.338;2023-08-21T13:53:19;34.60;99.90
20231;DHT22;10274;49.022;9.338;2023-08-21T13:55:47;34.20;99.90
20231;DHT22;10274;49.022;9.338;2023-08-21T13:58:13;34.60;99.90
20231;DHT22;10274;49.022;9.338;2023-08-21T14:00:40;34.60;99.90
20231;DHT22;10274;49.022;9.338;2023-08-21T14:03:07;34.80;99.90
20231;DHT22;10274;49.022;9.338;2023-08-21T14:05:33;34.60;99.90
20231;DHT22;10274;49.022;9.338;2023-08-21T14:08:00;34.30;99.90
20231;DHT22;10274;49.022;9.338;2023-08-21T14:10:26;34.10;99.90
20231;DHT22;10274;49.022;9.338;2023-08-21T14:12:54;34.20;99.90
20231;DHT22;10274;49.022;9.338;2023-08-21T14:15:22;33.90;99.90
20231;DHT22;10274;49.022;9.338;2023-08-21T14:17:48;34.10;99.90
20231;DHT22;10274;49.022;9.338;2023-08-21T14:20:15;34.00;99.90
20231;DHT22;10274;49.022;9.338;2023-08-21T14:22:42;34.30;99.90
20231;DHT22;10274;49.022;9.338;2023-08-21T14:25:12;34.40;99.90
20231;DHT22;10274;49.022;9.338;2023-08-21T14:27:40;34.20;99.90
20231;DHT22;10274;49.022;9.338;2023-08-21T14:30:09;34.30;99.90
20231;DHT22;10274;49.022;9.338;2023-08-21T14:32:35;33.90;99.90
20231;DHT22;10274;49.022;9.338;2023-08-21T14:35:02;33.80;99.90
20231;DHT22;10274;49.022;9.338;2023-08-21T14:37:29;33.90;99.90
20231;DHT22;10274;49.022;9.338;2023-08-21T14:39:56;34.10;99.90
20231;DHT22;10274;49.022;9.338;2023-08-21T14:42:22;34.30;99.90
20231;DHT22;10274;49.022;9.338;2023-08-21T14:44:49;34.10;99.90
20231;DHT22;10274;49.022;9.338;2023-08-21T14:47:17;33.90;99.90
20231;DHT22;10274;49.022;9.338;2023-08-21T14:49:43;33.50;99.90
20231;DHT22;10274;49.022;9.338;2023-08-21T14:52:10;33.70;99.90
20231;DHT22;10274;49.022;9.338;2023-08-21T14:54:37;33.60;99.90
20231;DHT22;10274;49.022;9.338;2023-08-21T14:57:03;33.60;99.90
20231;DHT22;10274;49.022;9.338;2023-08-21T14:59:30;33.60;99.90
20231;DHT22;10274;49.022;9.338;2023-08-21T15:01:56;33.60;99.90
20231;DHT22;10274;49.022;9.338;2023-08-21T15:04:25;33.80;99.90
20231;DHT22;10274;49.022;9.338;2023-08-21T15:06:51;33.80;99.90
20231;DHT22;10274;49.022;9.338;2023-08-21T15:09:18;33.50;99.90
20231;DHT22;10274;49.022;9.338;2023-08-21T15:11:44;33.60;99.90
20231;DHT22;10274;49.022;9.338;2023-08-21T15:14:11;33.40;99.90
20231;DHT22;10274;49.022;9.338;2023-08-21T15:16:38;33.10;99.90
20231;DHT22;10274;49.022;9.338;2023-08-21T15:19:04;33.00;99.90
20231;DHT22;10274;49.022;9.338;2023-08-21T15:21:32;33.20;99.90
20231;DHT22;10274;49.022;9.338;2023-08-21T15:23:59;32.90;99.90
20231;DHT22;10274;49.022;9.338;2023-08-21T15:26:26;33.00;99.90
20231;DHT22;10274;49.022;9.338;2023-08-21T15:28:52;32.80;99.90
20231;DHT22;10274;49.022;9.338;2023-08-21T15:31:19;32.60;99.90
20231;DHT22;10274;49.022;9.338;2023-08-21T15:33:45;32.60;99.90
20231;DHT22;10274;49.022;9.338;2023-08-21T15:36:12;32.60;99.90
20231;DHT22;10274;49.022;9.338;2023-08-21T15:38:40;32.50;99.90